createdAt,value
2018-01-21T00:01:00.524Z,97.61
2018-01-21T00:03:28.893Z,97.04
2018-01-21T00:05:57.439Z,97.28
2018-01-21T00:08:25.748Z,97.21
2018-01-21T00:10:54.114Z,97.16
2018-01-21T00:13:22.359Z,97.50
2018-01-21T00:15:50.661Z,97.93
2018-01-21T00:18:18.910Z,97.72
2018-01-21T00:20:47.972Z,97.90
2018-01-21T00:23:16.306Z,97.12
2018-01-21T00:25:45.346Z,97.27
2018-01-21T00:28:13.683Z,97.17
2018-01-21T00:30:42.015Z,97.73
2018-01-21T00:33:10.306Z,97.67
2018-01-21T00:35:38.657Z,97.65
2018-01-21T00:38:06.928Z,98.14
2018-01-21T00:40:35.265Z,97.38
2018-01-21T00:43:03.547Z,97.56
2018-01-21T00:45:32.787Z,97.46
2018-01-21T00:48:01.151Z,98.07
2018-01-21T00:50:29.534Z,98.05
2018-01-21T00:52:57.921Z,97.92
2018-01-21T00:55:26.330Z,97.90
2018-01-21T00:57:54.616Z,97.56
2018-01-21T01:00:23.006Z,97.20
2018-01-21T01:02:52.148Z,97.22
2018-01-21T01:05:20.547Z,96.99
2018-01-21T01:07:48.895Z,96.84
2018-01-21T01:10:17.990Z,96.69
2018-01-21T01:12:47.129Z,96.85
2018-01-21T01:15:15.434Z,97.31
2018-01-21T01:17:43.728Z,96.77
2018-01-21T01:20:11.966Z,96.34
2018-01-21T01:22:40.233Z,96.42
2018-01-21T01:25:08.487Z,96.66
2018-01-21T01:27:36.755Z,96.13
2018-01-21T01:30:05.006Z,96.14
2018-01-21T01:32:33.270Z,96.85
2018-01-21T01:35:01.538Z,96.92
2018-01-21T01:37:29.831Z,96.69
2018-01-21T01:39:58.147Z,96.76
2018-01-21T01:42:26.504Z,95.91
2018-01-21T01:44:54.739Z,96.45
2018-01-21T01:47:23.014Z,96.90
2018-01-21T01:49:52.035Z,95.87
2018-01-21T01:52:20.307Z,96.60
2018-01-21T01:54:48.573Z,96.61
2018-01-21T01:57:16.914Z,96.63
2018-01-21T01:59:45.179Z,96.51
2018-01-21T02:02:13.451Z,96.43
2018-01-21T02:04:41.700Z,95.99
2018-01-21T02:07:10.726Z,96.88
2018-01-21T02:09:38.972Z,96.30
2018-01-21T02:12:07.237Z,96.63
2018-01-21T02:14:35.487Z,96.44
2018-01-21T02:17:03.812Z,96.31
2018-01-21T02:19:32.105Z,96.84
2018-01-21T02:22:00.367Z,97.04
2018-01-21T02:24:28.870Z,97.29
2018-01-21T02:26:57.228Z,97.01
2018-01-21T02:29:26.327Z,97.03
2018-01-21T02:31:54.643Z,97.19
2018-01-21T02:34:22.918Z,96.69
2018-01-21T02:36:51.193Z,96.90
2018-01-21T02:39:19.454Z,97.09
2018-01-21T02:41:47.700Z,96.92
2018-01-21T02:44:15.997Z,96.66
2018-01-21T02:46:44.257Z,97.00
2018-01-21T02:49:13.358Z,97.25
2018-01-21T02:51:42.363Z,97.33
2018-01-21T02:54:11.399Z,97.36
2018-01-21T02:56:39.651Z,97.88
2018-01-21T02:59:07.929Z,97.04
2018-01-21T03:01:36.177Z,96.47
2018-01-21T03:04:04.487Z,96.83
2018-01-21T03:06:32.746Z,96.75
2018-01-21T03:09:01.076Z,96.58
2018-01-21T03:11:29.392Z,96.67
2018-01-21T03:13:58.515Z,96.48
2018-01-21T03:16:26.911Z,96.22
2018-01-21T03:18:55.179Z,96.39
2018-01-21T03:21:23.466Z,96.78
2018-01-21T03:23:51.722Z,97.08
2018-01-21T03:26:19.979Z,97.03
2018-01-21T03:28:48.231Z,97.15
2018-01-21T03:31:16.554Z,97.10
2018-01-21T03:33:44.836Z,96.99
2018-01-21T03:36:13.097Z,96.85
2018-01-21T03:38:41.352Z,95.67
2018-01-21T03:41:09.602Z,95.51
2018-01-21T03:43:37.855Z,96.19
2018-01-21T03:46:06.099Z,96.22
2018-01-21T03:48:34.363Z,95.82
2018-01-21T03:51:03.372Z,95.99
2018-01-21T03:53:32.460Z,96.04
2018-01-21T03:56:00.898Z,96.38
2018-01-21T03:58:29.259Z,96.66
2018-01-21T04:00:58.331Z,96.47
2018-01-21T04:03:26.621Z,96.13
2018-01-21T04:05:54.909Z,95.89
2018-01-21T04:08:23.154Z,95.78
2018-01-21T04:10:51.424Z,96.15
2018-01-21T04:13:20.443Z,95.72
2018-01-21T04:15:49.470Z,96.06
2018-01-21T04:18:17.774Z,95.19
2018-01-21T04:20:46.046Z,95.30
2018-01-21T04:23:14.302Z,95.25
2018-01-21T04:25:42.570Z,94.63
2018-01-21T04:28:10.814Z,94.81
2018-01-21T04:30:39.074Z,94.22
2018-01-21T04:33:08.096Z,93.62
2018-01-21T04:35:36.343Z,94.19
2018-01-21T04:38:04.591Z,93.83
2018-01-21T04:40:32.891Z,93.71
2018-01-21T04:43:01.170Z,93.19
2018-01-21T04:45:29.514Z,94.02
2018-01-21T04:47:58.625Z,92.44
2018-01-21T04:50:27.740Z,92.84
2018-01-21T04:52:56.899Z,92.16
2018-01-21T04:55:25.159Z,92.08
2018-01-21T04:57:53.426Z,92.07
2018-01-21T05:00:21.775Z,92.11
2018-01-21T05:02:50.012Z,90.62
2018-01-21T05:05:19.039Z,90.93
2018-01-21T05:07:47.331Z,91.03
2018-01-21T05:10:15.792Z,91.14
2018-01-21T05:12:44.826Z,90.74
2018-01-21T05:15:13.071Z,90.91
2018-01-21T05:17:41.331Z,91.40
2018-01-21T05:20:09.572Z,92.02
2018-01-21T05:22:38.600Z,91.36
2018-01-21T05:25:06.852Z,91.75
2018-01-21T05:27:35.146Z,91.11
2018-01-21T05:30:03.380Z,92.05
2018-01-21T05:32:31.670Z,91.52
2018-01-21T05:35:00.437Z,90.51
2018-01-21T05:37:29.167Z,91.54
2018-01-21T05:39:57.655Z,92.27
2018-01-21T05:42:25.960Z,91.69
2018-01-21T05:44:54.563Z,90.97
2018-01-21T05:47:22.823Z,89.74
2018-01-21T05:49:51.066Z,90.27
2018-01-21T05:52:19.699Z,91.09
2018-01-21T05:54:48.711Z,91.64
2018-01-21T05:57:17.379Z,91.85
2018-01-21T05:59:45.675Z,91.74
2018-01-21T06:02:14.252Z,92.25
2018-01-21T06:04:43.192Z,92.66
2018-01-21T06:07:12.794Z,92.35
2018-01-21T06:09:41.349Z,91.49
2018-01-21T06:12:09.801Z,91.88
2018-01-21T06:14:39.092Z,91.93
2018-01-21T06:17:07.483Z,91.79
2018-01-21T06:19:36.027Z,91.55
2018-01-21T06:22:04.374Z,92.05
2018-01-21T06:24:32.711Z,91.21
2018-01-21T06:27:01.193Z,90.26
2018-01-21T06:29:29.502Z,90.98
2018-01-21T06:31:58.295Z,90.72
2018-01-21T06:34:27.596Z,91.32
2018-01-21T06:36:56.460Z,91.21
2018-01-21T06:39:24.989Z,89.81
2018-01-21T06:41:54.221Z,89.37
2018-01-21T06:44:22.596Z,89.66
2018-01-21T06:46:51.225Z,89.90
2018-01-21T06:49:20.687Z,89.32
2018-01-21T06:51:49.752Z,89.62
2018-01-21T06:54:18.324Z,89.99
2018-01-21T06:56:46.620Z,89.88
2018-01-21T06:59:14.926Z,89.92
2018-01-21T07:01:43.247Z,90.07
2018-01-21T07:04:11.596Z,90.50
2018-01-21T07:06:39.838Z,89.51
2018-01-21T07:09:08.879Z,89.70
2018-01-21T07:11:37.324Z,89.84
2018-01-21T07:14:05.653Z,89.38
2018-01-21T07:16:33.924Z,89.36
2018-01-21T07:19:03.300Z,90.83
2018-01-21T07:21:31.565Z,91.51
2018-01-21T07:23:59.996Z,91.67
2018-01-21T07:26:28.756Z,91.91
2018-01-21T07:28:57.769Z,92.21
2018-01-21T07:31:26.804Z,92.21
2018-01-21T07:33:55.360Z,91.42
2018-01-21T07:36:23.766Z,90.23
2018-01-21T07:38:52.071Z,90.81
2018-01-21T07:41:20.340Z,90.67
2018-01-21T07:43:49.152Z,89.89
2018-01-21T07:46:17.881Z,88.91
2018-01-21T07:48:46.763Z,89.43
2018-01-21T07:51:15.195Z,89.51
2018-01-21T07:53:44.778Z,89.70
2018-01-21T07:56:13.748Z,89.77
2018-01-21T07:58:42.178Z,87.15
2018-01-21T08:01:11.158Z,88.13
2018-01-21T08:03:39.871Z,88.96
2018-01-21T08:06:08.516Z,88.96
2018-01-21T08:08:37.791Z,88.46
2018-01-21T08:11:07.385Z,88.76
2018-01-21T08:13:36.487Z,87.87
2018-01-21T08:16:05.500Z,89.43
2018-01-21T08:18:34.801Z,87.33
2018-01-21T08:21:06.137Z,86.33
2018-01-21T08:23:34.770Z,86.84
2018-01-21T08:26:04.167Z,85.68
2018-01-21T08:28:33.330Z,86.33
2018-01-21T08:31:02.458Z,87.42
2018-01-21T08:33:32.282Z,85.57
2018-01-21T08:36:06.126Z,84.79
2018-01-21T08:38:39.809Z,83.92
2018-01-21T08:41:13.901Z,84.99
2018-01-21T08:43:42.460Z,84.33
2018-01-21T08:46:10.769Z,82.46
2018-01-21T08:48:40.005Z,82.11
2018-01-21T08:51:08.510Z,81.98
2018-01-21T08:53:36.766Z,80.57
2018-01-21T08:56:05.929Z,82.00
2018-01-21T08:58:34.465Z,78.82
2018-01-21T09:01:02.755Z,80.68
2018-01-21T09:03:32.133Z,78.46
2018-01-21T09:06:00.880Z,78.12
2018-01-21T09:08:29.432Z,79.25
2018-01-21T09:10:58.565Z,78.23
2018-01-21T09:13:28.315Z,84.58
2018-01-21T09:15:57.558Z,75.90
2018-01-21T09:18:26.034Z,76.06
2018-01-21T09:20:54.416Z,76.63
2018-01-21T09:23:24.170Z,77.24
2018-01-21T09:25:52.459Z,75.20
2018-01-21T09:28:21.031Z,75.54
2018-01-21T09:30:49.537Z,78.40
2018-01-21T09:33:18.312Z,76.42
2018-01-21T09:35:47.843Z,76.82
2018-01-21T09:38:16.831Z,76.51
2018-01-21T09:40:45.513Z,76.75
2018-01-21T09:43:14.457Z,76.62
2018-01-21T09:45:42.875Z,77.06
2018-01-21T09:48:11.455Z,75.97
2018-01-21T09:50:39.740Z,74.03
2018-01-21T09:53:08.145Z,73.19
2018-01-21T09:55:36.491Z,72.62
2018-01-21T09:58:05.755Z,74.23
2018-01-21T10:00:34.111Z,72.64
2018-01-21T10:03:03.197Z,73.02
2018-01-21T10:05:31.577Z,72.35
2018-01-21T10:08:01.567Z,71.52
2018-01-21T10:10:30.189Z,73.20
2018-01-21T10:12:58.773Z,75.19
2018-01-21T10:15:27.421Z,71.46
2018-01-21T10:17:56.686Z,73.22
2018-01-21T10:20:25.274Z,73.69
2018-01-21T10:22:53.977Z,73.73
2018-01-21T10:25:22.718Z,73.42
2018-01-21T10:27:51.414Z,71.66
2018-01-21T10:30:20.661Z,72.51
2018-01-21T10:32:50.512Z,70.05
2018-01-21T10:35:19.301Z,72.36
2018-01-21T10:37:47.963Z,71.77
2018-01-21T10:40:17.379Z,70.86
2018-01-21T10:42:46.380Z,69.57
2018-01-21T10:45:14.959Z,65.55
2018-01-21T10:47:43.924Z,69.98
2018-01-21T10:50:13.379Z,67.48
2018-01-21T10:52:42.131Z,68.00
2018-01-21T10:55:10.659Z,69.61
2018-01-21T10:57:39.612Z,67.55
2018-01-21T11:00:09.128Z,69.41
2018-01-21T11:02:43.430Z,68.32
2018-01-21T11:05:12.237Z,66.95
2018-01-21T11:07:40.821Z,68.73
2018-01-21T11:10:09.489Z,67.99
2018-01-21T11:12:38.117Z,68.70
2018-01-21T11:15:06.903Z,70.28
2018-01-21T11:17:35.777Z,68.95
2018-01-21T11:20:05.333Z,68.04
2018-01-21T11:22:33.985Z,68.92
2018-01-21T11:25:03.628Z,69.89
2018-01-21T11:27:32.693Z,69.23
2018-01-21T11:30:02.540Z,69.00
2018-01-21T11:32:31.253Z,70.74
2018-01-21T11:35:00.717Z,67.38
2018-01-21T11:37:29.298Z,64.59
2018-01-21T11:39:57.629Z,65.41
2018-01-21T11:42:27.439Z,67.43
2018-01-21T11:44:57.404Z,64.63
2018-01-21T11:47:25.954Z,67.03
2018-01-21T11:49:54.645Z,68.59
2018-01-21T11:52:23.027Z,64.30
2018-01-21T11:54:51.652Z,63.79
2018-01-21T11:57:20.797Z,63.22
2018-01-21T11:59:49.608Z,66.83
2018-01-21T12:02:18.486Z,67.84
2018-01-21T12:04:47.936Z,66.78
2018-01-21T12:07:16.573Z,65.48
2018-01-21T12:09:45.530Z,64.59
2018-01-21T12:12:15.065Z,66.19
2018-01-21T12:14:43.854Z,64.25
2018-01-21T12:17:13.489Z,66.30
2018-01-21T12:19:42.361Z,63.01
2018-01-21T12:22:11.165Z,63.48
2018-01-21T12:24:40.097Z,64.24
2018-01-21T12:27:08.632Z,64.98
2018-01-21T12:29:37.143Z,64.73
2018-01-21T12:32:06.394Z,60.76
2018-01-21T12:34:35.284Z,60.89
2018-01-21T12:37:03.634Z,63.85
2018-01-21T12:39:32.437Z,62.21
2018-01-21T12:42:01.627Z,62.25
2018-01-21T12:44:30.541Z,62.43
2018-01-21T12:46:59.030Z,63.51
2018-01-21T12:49:28.955Z,62.89
2018-01-21T12:51:57.842Z,60.37
2018-01-21T12:54:26.606Z,60.99
2018-01-21T12:56:55.210Z,60.13
2018-01-21T12:59:23.770Z,61.47
2018-01-21T13:01:52.705Z,61.88
2018-01-21T13:04:21.816Z,62.71
2018-01-21T13:06:50.970Z,62.13
2018-01-21T13:09:19.877Z,61.68
2018-01-21T13:11:48.614Z,62.58
2018-01-21T13:14:18.262Z,62.09
2018-01-21T13:16:46.972Z,63.87
2018-01-21T13:19:15.949Z,62.94
2018-01-21T13:21:44.635Z,64.05
2018-01-21T13:24:14.388Z,63.97
2018-01-21T13:26:43.241Z,63.02
2018-01-21T13:29:11.877Z,63.30
2018-01-21T13:31:40.931Z,64.50
2018-01-21T13:34:09.422Z,64.66
2018-01-21T13:36:38.413Z,64.66
2018-01-21T13:39:06.823Z,63.06
2018-01-21T13:41:36.003Z,64.15
2018-01-21T13:44:05.223Z,65.68
2018-01-21T13:46:33.852Z,65.22
2018-01-21T13:49:02.756Z,64.85
2018-01-21T13:51:31.254Z,63.83
2018-01-21T13:54:00.745Z,63.23
2018-01-21T13:56:29.827Z,63.73
2018-01-21T13:58:58.736Z,64.88
2018-01-21T14:01:27.775Z,61.69
2018-01-21T14:03:56.917Z,60.68
2018-01-21T14:06:26.206Z,61.04
2018-01-21T14:08:55.111Z,62.03
2018-01-21T14:11:24.420Z,60.95
2018-01-21T14:13:53.114Z,61.12
2018-01-21T14:16:22.526Z,60.07
2018-01-21T14:18:51.367Z,60.55
2018-01-21T14:21:21.290Z,62.53
2018-01-21T14:23:50.025Z,60.30
2018-01-21T14:26:18.588Z,60.31
2018-01-21T14:28:46.871Z,59.95
2018-01-21T14:31:15.152Z,60.69
2018-01-21T14:33:43.402Z,60.89
2018-01-21T14:36:11.699Z,59.26
2018-01-21T14:38:40.032Z,61.42
2018-01-21T14:41:08.372Z,62.38
2018-01-21T14:43:36.719Z,62.15
2018-01-21T14:46:05.802Z,62.68
2018-01-21T14:48:34.084Z,63.63
2018-01-21T14:51:02.402Z,66.70
2018-01-21T14:53:30.686Z,66.16
2018-01-21T14:55:59.050Z,64.81
2018-01-21T14:58:27.373Z,64.66
2018-01-21T15:00:56.415Z,66.23
2018-01-21T15:03:25.172Z,63.81
2018-01-21T15:05:53.957Z,63.95
2018-01-21T15:08:22.230Z,64.88
2018-01-21T15:10:51.531Z,82.08
2018-01-21T15:13:19.822Z,62.34
2018-01-21T15:15:48.115Z,65.11
2018-01-21T15:18:16.451Z,66.63
2018-01-21T15:20:45.533Z,65.62
2018-01-21T15:23:13.893Z,66.96
2018-01-21T15:25:42.163Z,66.09
2018-01-21T15:28:10.483Z,71.21
2018-01-21T15:30:38.744Z,66.39
2018-01-21T15:33:07.100Z,66.21
2018-01-21T15:35:35.415Z,66.62
2018-01-21T15:38:03.745Z,66.82
2018-01-21T15:40:32.053Z,67.35
2018-01-21T15:43:00.419Z,67.02
2018-01-21T15:45:28.748Z,67.67
2018-01-21T15:47:57.109Z,66.92
2018-01-21T15:50:25.456Z,68.32
2018-01-21T15:52:53.740Z,68.25
2018-01-21T15:55:22.833Z,69.08
2018-01-21T15:57:51.252Z,68.73
2018-01-21T16:00:19.457Z,68.39
2018-01-21T16:02:47.836Z,68.08
2018-01-21T16:05:16.324Z,69.53
2018-01-21T16:07:44.798Z,70.25
2018-01-21T16:10:13.321Z,70.53
2018-01-21T16:12:41.952Z,70.24
2018-01-21T16:15:10.399Z,70.24
2018-01-21T16:17:39.628Z,69.85
2018-01-21T16:20:08.131Z,70.72
2018-01-21T16:22:36.879Z,72.09
2018-01-21T16:25:05.175Z,70.61
2018-01-21T16:27:33.471Z,71.64
2018-01-21T16:30:02.519Z,70.00
2018-01-21T16:32:30.827Z,70.94
2018-01-21T16:34:59.186Z,71.14
2018-01-21T16:37:45.224Z,72.96
2018-01-21T16:40:16.519Z,72.39
2018-01-21T16:42:45.782Z,72.47
2018-01-21T16:45:14.101Z,72.91
2018-01-21T16:47:42.385Z,73.54
2018-01-21T16:50:10.700Z,74.22
2018-01-21T16:52:38.970Z,74.12
2018-01-21T16:55:07.263Z,74.25
2018-01-21T16:57:35.572Z,75.01
2018-01-21T17:00:03.916Z,75.75
2018-01-21T17:02:32.258Z,74.66
2018-01-21T17:05:00.671Z,75.74
2018-01-21T17:07:29.780Z,76.70
2018-01-21T17:09:58.854Z,76.54
2018-01-21T17:12:27.197Z,77.17
2018-01-21T17:14:55.486Z,76.79
2018-01-21T17:17:23.820Z,77.55
2018-01-21T17:19:52.171Z,77.34
2018-01-21T17:22:20.496Z,77.60
2018-01-21T17:24:48.782Z,77.13
2018-01-21T17:27:17.145Z,77.97
2018-01-21T17:29:45.437Z,77.26
2018-01-21T17:32:13.744Z,77.66
2018-01-21T17:34:41.990Z,77.29
2018-01-21T17:37:11.423Z,79.56
2018-01-21T17:39:39.746Z,76.91
2018-01-21T17:42:08.147Z,77.80
2018-01-21T17:44:36.480Z,78.77
2018-01-21T17:47:05.543Z,78.41
2018-01-21T17:49:33.827Z,78.03
2018-01-21T17:52:02.953Z,78.57
2018-01-21T17:54:31.298Z,78.95
2018-01-21T17:56:59.716Z,77.79
2018-01-21T17:59:27.999Z,78.56
2018-01-21T18:01:56.300Z,77.30
2018-01-21T18:04:24.605Z,77.06
2018-01-21T18:06:52.887Z,77.80
2018-01-21T18:09:21.260Z,77.11
2018-01-21T18:11:49.582Z,76.19
2018-01-21T18:14:17.874Z,76.14
2018-01-21T18:16:46.221Z,76.56
2018-01-21T18:19:14.514Z,76.55
2018-01-21T18:21:42.778Z,76.26
2018-01-21T18:24:11.090Z,77.11
2018-01-21T18:26:39.382Z,76.88
2018-01-21T18:29:07.705Z,77.56
2018-01-21T18:31:36.781Z,77.21
2018-01-21T18:34:05.142Z,77.57
2018-01-21T18:36:33.465Z,77.83
2018-01-21T18:39:01.837Z,78.54
2018-01-21T18:41:30.151Z,78.25
2018-01-21T18:43:59.116Z,79.05
2018-01-21T18:46:27.474Z,79.06
2018-01-21T18:48:55.792Z,78.92
2018-01-21T18:51:24.910Z,79.61
2018-01-21T18:53:53.951Z,79.90
2018-01-21T18:56:22.302Z,79.67
2018-01-21T18:58:51.514Z,79.56
2018-01-21T19:01:20.599Z,80.20
2018-01-21T19:03:49.656Z,80.17
2018-01-21T19:06:17.933Z,80.18
2018-01-21T19:08:46.208Z,80.18
2018-01-21T19:11:14.555Z,80.53
2018-01-21T19:13:42.827Z,80.74
2018-01-21T19:16:11.914Z,80.93
2018-01-21T19:18:40.158Z,79.50
2018-01-21T19:21:08.611Z,79.46
2018-01-21T19:23:36.936Z,79.37
2018-01-21T19:26:05.206Z,79.26
2018-01-21T19:28:33.721Z,79.41
2018-01-21T19:31:02.023Z,79.45
2018-01-21T19:33:30.348Z,79.07
2018-01-21T19:35:58.686Z,79.22
2018-01-21T19:41:43.495Z,79.67
2018-01-21T19:44:11.962Z,79.12
2018-01-21T19:46:40.302Z,79.02
2018-01-21T19:49:08.668Z,79.82
2018-01-21T19:51:36.943Z,79.33
2018-01-21T19:54:05.284Z,78.90
2018-01-21T19:56:34.429Z,79.21
2018-01-21T19:59:03.539Z,78.42
2018-01-21T20:01:32.078Z,78.72
2018-01-21T20:04:00.536Z,78.50
2018-01-21T20:06:29.024Z,78.22
2018-01-21T20:08:57.504Z,78.15
2018-01-21T20:11:25.907Z,78.12
2018-01-21T20:13:54.247Z,78.42
2018-01-21T20:16:22.596Z,78.07
2018-01-21T20:18:50.931Z,78.77
2018-01-21T20:21:20.748Z,78.56
2018-01-21T20:23:49.804Z,78.06
2018-01-21T20:26:18.062Z,78.64
2018-01-21T20:28:47.206Z,79.30
2018-01-21T20:31:15.505Z,78.56
2018-01-21T20:33:43.782Z,78.36
2018-01-21T20:36:12.064Z,78.25
2018-01-21T20:38:40.433Z,78.08
2018-01-21T20:41:08.769Z,78.05
2018-01-21T20:43:37.123Z,78.84
2018-01-21T20:46:06.268Z,78.91
2018-01-21T20:48:34.671Z,79.22
2018-01-21T20:51:08.410Z,79.02
2018-01-21T20:53:42.210Z,79.01
2018-01-21T20:56:10.545Z,78.73
2018-01-21T20:58:38.943Z,78.46
2018-01-21T21:01:08.086Z,78.72
2018-01-21T21:03:36.495Z,79.07
2018-01-21T21:06:04.817Z,79.16
2018-01-21T21:08:34.267Z,78.81
2018-01-21T21:11:02.655Z,79.69
2018-01-21T21:13:31.973Z,79.18
2018-01-21T21:16:00.283Z,79.56
2018-01-21T21:18:28.681Z,79.52
2018-01-21T21:20:57.007Z,79.50
2018-01-21T21:23:25.351Z,79.68
2018-01-21T21:25:53.676Z,79.11
2018-01-21T21:28:21.962Z,78.67
2018-01-21T21:30:51.082Z,78.55
2018-01-21T21:33:19.443Z,78.40
2018-01-21T21:35:47.783Z,77.28
2018-01-21T21:38:16.878Z,77.72
2018-01-21T21:40:45.134Z,78.14
2018-01-21T21:43:13.462Z,77.46
2018-01-21T21:45:42.569Z,76.87
2018-01-21T21:48:11.920Z,77.11
2018-01-21T21:50:41.014Z,77.50
2018-01-21T21:53:09.341Z,77.61
2018-01-21T21:55:38.222Z,76.61
2018-01-21T21:58:06.509Z,76.99
2018-01-21T22:00:34.935Z,77.71
2018-01-21T22:03:03.285Z,77.43
2018-01-21T22:05:31.632Z,76.93
2018-01-21T22:08:00.722Z,77.12
2018-01-21T22:10:28.996Z,77.02
2018-01-21T22:12:57.349Z,76.30
2018-01-21T22:15:26.387Z,77.45
2018-01-21T22:17:54.711Z,77.19
2018-01-21T22:20:23.048Z,76.67
2018-01-21T22:22:51.344Z,76.44
2018-01-21T22:25:19.691Z,76.09
2018-01-21T22:27:47.949Z,76.11
2018-01-21T22:30:16.225Z,75.51
2018-01-21T22:32:44.537Z,75.73
2018-01-21T22:35:12.881Z,76.09
2018-01-21T22:37:41.933Z,76.03
2018-01-21T22:40:10.285Z,75.70
2018-01-21T22:42:38.551Z,76.13
2018-01-21T22:45:07.619Z,77.65
2018-01-21T22:47:36.355Z,79.12
2018-01-21T22:50:04.796Z,80.92
2018-01-21T22:52:33.119Z,82.30
2018-01-21T22:55:01.387Z,83.76
2018-01-21T22:57:29.685Z,83.81
2018-01-21T22:59:57.950Z,84.89
2018-01-21T23:02:26.191Z,85.82
2018-01-21T23:04:55.171Z,87.57
2018-01-21T23:07:23.508Z,87.66
2018-01-21T23:09:52.539Z,88.49
2018-01-21T23:12:20.802Z,89.06
2018-01-21T23:14:49.835Z,88.94
2018-01-21T23:17:18.113Z,90.16
2018-01-21T23:19:46.430Z,89.81
2018-01-21T23:22:14.743Z,90.40
2018-01-21T23:24:43.029Z,91.08
2018-01-21T23:27:11.379Z,90.71
2018-01-21T23:29:39.644Z,90.88
2018-01-21T23:32:08.668Z,91.72
2018-01-21T23:34:37.679Z,91.72
2018-01-21T23:37:05.955Z,91.99
2018-01-21T23:39:34.960Z,92.10
2018-01-21T23:42:03.996Z,92.52
2018-01-21T23:44:32.222Z,92.22
2018-01-21T23:47:00.536Z,92.99
2018-01-21T23:49:29.568Z,93.19
2018-01-21T23:51:57.835Z,93.57
2018-01-21T23:54:26.843Z,93.57
2018-01-21T23:56:55.867Z,94.28
2018-01-21T23:59:24.115Z,95.04
